Time;durP1;ratioP1;P1;durP2;ratioP2;P2;SDS_P1;SDS_P2;PMS_P1;PMS_P2;Temp;Humidity;BMP_temperature;BMP_pressure;BME280_temperature;BME280_humidity;BME280_pressure;Samples;Min_cycle;Max_cycle;Signal;HPM_P1;HPM_P2
2021/01/04 00:01:51;;;;;;;29.00;18.37;;;3.20;99.90;;;;;;5042991;28;20406;-57
2021/01/04 00:04:54;;;;;;;26.53;17.87;;;3.30;99.90;;;;;;5045746;28;20456;-59
2021/01/04 00:07:19;;;;;;;29.10;18.30;;;3.20;99.90;;;;;;5043499;28;20473;-53
2021/01/04 00:10:18;;;;;;;29.27;18.50;;;3.30;99.90;;;;;;5038980;28;20806;-52
2021/01/04 00:12:56;;;;;;;27.90;18.60;;;3.40;99.90;;;;;;5039642;28;20259;-57
2021/01/04 00:15:47;;;;;;;27.00;17.57;;;3.40;99.90;;;;;;5040033;28;20410;-57
2021/01/04 00:18:27;;;;;;;26.07;17.20;;;3.40;99.90;;;;;;5042581;28;20483;-53
2021/01/04 00:21:16;;;;;;;27.57;18.17;;;3.40;99.90;;;;;;5040157;28;20398;-60
2021/01/04 00:24:00;;;;;;;26.70;17.80;;;3.50;99.90;;;;;;5028587;28;20414;-56
2021/01/04 00:26:49;;;;;;;25.13;17.00;;;3.50;99.90;;;;;;5042109;28;20829;-54
2021/01/04 00:29:16;;;;;;;27.13;17.47;;;3.50;99.90;;;;;;5039755;28;20526;-51
2021/01/04 00:31:46;;;;;;;25.87;17.70;;;3.50;99.90;;;;;;5045708;28;20418;-52
2021/01/04 00:34:14;;;;;;;26.63;17.60;;;3.50;99.90;;;;;;5038543;28;20395;-52
2021/01/04 00:37:03;;;;;;;27.03;16.87;;;3.50;99.90;;;;;;5041922;28;20450;-57
2021/01/04 00:40:00;;;;;;;22.90;15.70;;;3.50;99.90;;;;;;5022202;28;20529;-55
2021/01/04 00:42:42;;;;;;;25.57;17.07;;;3.50;99.90;;;;;;5038363;28;20251;-52
2021/01/04 00:45:17;;;;;;;25.87;17.33;;;3.50;99.90;;;;;;5035229;28;20744;-57
2021/01/04 00:48:10;;;;;;;28.60;18.17;;;3.50;99.90;;;;;;5041134;28;20410;-57
2021/01/04 00:50:54;;;;;;;26.90;18.03;;;3.60;99.90;;;;;;5018930;28;20180;-58
2021/01/04 00:53:42;;;;;;;27.37;18.57;;;3.50;99.90;;;;;;5026641;28;20420;-57
2021/01/04 00:56:27;;;;;;;25.30;17.70;;;3.40;99.90;;;;;;5041820;28;20452;-58
2021/01/04 00:59:31;;;;;;;27.47;18.07;;;3.40;99.90;;;;;;5035834;28;20508;-52
2021/01/04 01:02:31;;;;;;;26.23;17.23;;;3.50;99.90;;;;;;5042567;28;20406;-58
2021/01/04 01:05:05;;;;;;;27.20;17.97;;;3.50;99.90;;;;;;5038803;28;20425;-58
2021/01/04 01:07:45;;;;;;;27.73;17.23;;;3.40;99.90;;;;;;5042904;28;20407;-54
2021/01/04 01:10:11;;;;;;;24.43;16.63;;;3.20;99.90;;;;;;5042619;28;20402;-55
2021/01/04 01:12:49;;;;;;;26.00;16.83;;;3.20;99.90;;;;;;5041859;28;20449;-58
2021/01/04 01:15:25;;;;;;;26.33;17.87;;;3.20;99.90;;;;;;5046095;28;20172;-57
2021/01/04 01:17:53;;;;;;;28.27;17.67;;;3.40;99.90;;;;;;5037965;28;20453;-52
2021/01/04 01:20:21;;;;;;;24.30;16.63;;;3.30;99.90;;;;;;5038365;28;20437;-52
2021/01/04 01:22:47;;;;;;;24.67;16.97;;;3.30;99.90;;;;;;5041041;28;20413;-52
2021/01/04 01:25:21;;;;;;;27.73;18.00;;;3.30;99.90;;;;;;5038276;28;20951;-57
2021/01/04 01:28:05;;;;;;;27.27;17.97;;;3.30;99.90;;;;;;5022876;28;20259;-58
2021/01/04 01:31:07;;;;;;;25.13;16.30;;;3.20;99.90;;;;;;5038816;28;20239;-60
2021/01/04 01:33:56;;;;;;;25.03;17.07;;;3.20;99.90;;;;;;5019437;28;20398;-52
2021/01/04 01:36:39;;;;;;;25.03;16.37;;;3.00;99.90;;;;;;5037552;28;20448;-58
2021/01/04 01:39:36;;;;;;;24.60;16.07;;;2.70;99.90;;;;;;5038813;28;20437;-56
2021/01/04 01:42:39;;;;;;;26.93;17.53;;;2.40;99.90;;;;;;5039594;28;20936;-57
2021/01/04 01:45:16;;;;;;;25.57;17.33;;;2.10;99.90;;;;;;5028113;28;20871;-59
2021/01/04 01:47:47;;;;;;;21.97;15.20;;;1.90;99.90;;;;;;5044206;28;20410;-58
2021/01/04 01:50:34;;;;;;;26.07;16.70;;;1.80;99.90;;;;;;5042243;28;20409;-55
2021/01/04 01:53:09;;;;;;;24.40;15.97;;;1.90;99.90;;;;;;5041015;28;20420;-53
2021/01/04 01:56:16;;;;;;;24.93;16.30;;;2.20;99.90;;;;;;5036865;28;20448;-60
2021/01/04 01:59:14;;;;;;;25.63;17.10;;;2.30;99.90;;;;;;5037139;28;20434;-59
2021/01/04 02:02:01;;;;;;;24.93;15.20;;;2.40;99.90;;;;;;5038299;28;20454;-54
2021/01/04 02:04:43;;;;;;;23.70;15.83;;;2.60;99.90;;;;;;5036955;28;20458;-56
2021/01/04 02:07:34;;;;;;;22.07;14.50;;;2.80;99.90;;;;;;5044823;28;20405;-56
2021/01/04 02:10:17;;;;;;;24.67;16.10;;;2.90;99.90;;;;;;5033037;28;20434;-59
2021/01/04 02:13:04;;;;;;;23.57;16.07;;;2.80;99.90;;;;;;5024798;28;20430;-52
2021/01/04 02:15:59;;;;;;;23.37;16.40;;;2.90;99.90;;;;;;5044579;28;20575;-55
2021/01/04 02:19:08;;;;;;;28.43;17.00;;;2.90;99.90;;;;;;5037086;28;20930;-60
2021/01/04 02:22:02;;;;;;;27.30;16.73;;;3.00;99.90;;;;;;5025641;28;20417;-53
2021/01/04 02:24:28;;;;;;;28.77;18.77;;;3.00;99.90;;;;;;5020807;28;20403;-53
2021/01/04 02:27:22;;;;;;;28.63;18.37;;;2.80;99.90;;;;;;5036057;28;20476;-56
2021/01/04 02:29:47;;;;;;;31.93;18.27;;;2.60;99.90;;;;;;5041797;28;20192;-52
2021/01/04 02:32:13;;;;;;;30.37;19.17;;;2.40;99.90;;;;;;5037695;28;20469;-54
2021/01/04 02:34:46;;;;;;;26.83;17.17;;;2.20;99.90;;;;;;5040560;28;20176;-54
2021/01/04 02:37:13;;;;;;;27.50;16.80;;;2.30;99.90;;;;;;5036123;28;20659;-57
2021/01/04 02:39:59;;;;;;;26.47;15.97;;;2.30;99.90;;;;;;5042784;28;20437;-59
2021/01/04 02:42:31;;;;;;;27.50;17.13;;;2.30;99.90;;;;;;5021644;28;20464;-54
2021/01/04 02:44:58;;;;;;;24.43;16.03;;;2.40;99.90;;;;;;5039880;28;20415;-53
2021/01/04 02:47:42;;;;;;;29.43;18.40;;;2.40;99.90;;;;;;5040336;28;20418;-56
2021/01/04 02:50:43;;;;;;;25.00;16.23;;;2.30;99.90;;;;;;5021238;28;20794;-57
2021/01/04 02:53:36;;;;;;;27.77;17.73;;;2.10;99.90;;;;;;5040640;28;20411;-56
2021/01/04 02:56:42;;;;;;;26.73;17.50;;;2.00;99.90;;;;;;5045409;28;20450;-60
2021/01/04 02:59:32;;;;;;;25.83;16.37;;;2.20;99.90;;;;;;5036690;28;20588;-53
2021/01/04 03:02:22;;;;;;;29.07;17.47;;;2.10;99.90;;;;;;5036531;28;20406;-51
2021/01/04 03:04:49;;;;;;;26.63;16.60;;;2.20;99.90;;;;;;5044562;28;20418;-55
2021/01/04 03:07:30;;;;;;;26.87;16.57;;;2.20;99.90;;;;;;5038377;28;20410;-59
2021/01/04 03:09:58;;;;;;;25.47;16.33;;;2.20;99.90;;;;;;5043275;28;20489;-57
2021/01/04 03:12:28;;;;;;;26.03;16.73;;;2.20;99.90;;;;;;5043414;28;20476;-59
2021/01/04 03:15:25;;;;;;;26.90;17.03;;;2.30;99.90;;;;;;5043481;28;20398;-52
2021/01/04 03:18:10;;;;;;;26.40;16.47;;;2.40;99.90;;;;;;5044658;28;20545;-54
2021/01/04 03:20:35;;;;;;;26.03;17.57;;;2.40;99.90;;;;;;5040653;28;20414;-53
2021/01/04 03:23:01;;;;;;;26.50;16.03;;;2.40;99.90;;;;;;5024158;28;20425;-59
2021/01/04 03:25:33;;;;;;;25.90;16.53;;;2.40;99.90;;;;;;5024182;28;20176;-59
2021/01/04 03:28:00;;;;;;;24.90;15.83;;;2.40;99.90;;;;;;5042055;28;20202;-55
2021/01/04 03:30:26;;;;;;;25.57;16.10;;;2.50;99.90;;;;;;5040018;28;20410;-52
2021/01/04 03:32:52;;;;;;;26.37;16.40;;;2.60;99.90;;;;;;5040204;28;20430;-56
2021/01/04 03:35:17;;;;;;;23.57;16.20;;;2.60;99.90;;;;;;5045311;28;20456;-52
2021/01/04 03:37:43;;;;;;;27.20;17.07;;;2.50;99.90;;;;;;5044192;28;20203;-57
2021/01/04 03:40:09;;;;;;;27.70;17.23;;;2.40;99.90;;;;;;5039011;28;20191;-57
2021/01/04 03:42:34;;;;;;;29.40;19.00;;;2.30;99.90;;;;;;5039375;28;20176;-57
2021/01/04 03:45:00;;;;;;;26.13;17.10;;;2.20;99.90;;;;;;5042509;28;20486;-59
2021/01/04 03:47:26;;;;;;;31.83;19.73;;;2.20;99.90;;;;;;5040221;28;20239;-60
2021/01/04 03:49:52;;;;;;;31.13;19.20;;;3.10;99.90;;;;;;5018513;28;20224;-54
2021/01/04 03:52:17;;;;;;;29.17;17.63;;;2.00;99.90;;;;;;5040835;28;20188;-54
2021/01/04 03:54:43;;;;;;;29.80;18.97;;;1.90;99.90;;;;;;5039261;28;20493;-57
2021/01/04 03:57:10;;;;;;;31.70;19.60;;;1.90;99.90;;;;;;5042308;28;20199;-56
2021/01/04 03:59:35;;;;;;;31.57;19.13;;;1.80;99.90;;;;;;5040435;28;20442;-56
2021/01/04 04:02:01;;;;;;;32.50;20.13;;;1.70;99.90;;;;;;5043793;28;20414;-57
2021/01/04 04:04:27;;;;;;;32.37;19.93;;;1.70;99.90;;;;;;5037785;28;20188;-54
2021/01/04 04:06:52;;;;;;;29.33;18.47;;;1.60;99.90;;;;;;5041124;28;20484;-58
2021/01/04 04:09:20;;;;;;;29.10;18.10;;;1.60;99.90;;;;;;5043442;28;20196;-52
2021/01/04 04:11:46;;;;;;;32.57;19.67;;;1.60;99.90;;;;;;5044219;28;20180;-57
2021/01/04 04:14:12;;;;;;;28.40;17.93;;;1.50;99.90;;;;;;5036815;28;20448;-52
2021/01/04 04:16:37;;;;;;;35.23;21.07;;;1.50;99.90;;;;;;5035184;28;20997;-55
2021/01/04 04:19:04;;;;;;;28.90;18.20;;;1.50;99.90;;;;;;5035414;28;20190;-56
2021/01/04 04:21:31;;;;;;;30.97;19.30;;;1.40;99.90;;;;;;5044498;28;20168;-60
2021/01/04 04:23:57;;;;;;;27.80;17.97;;;1.50;99.90;;;;;;5044218;28;20422;-57
2021/01/04 04:26:26;;;;;;;33.23;20.87;;;1.40;99.90;;;;;;5039705;28;20420;-50
2021/01/04 04:28:52;;;;;;;30.07;19.30;;;1.40;99.90;;;;;;5036482;28;20203;-51
2021/01/04 04:31:18;;;;;;;32.17;19.40;;;1.40;99.90;;;;;;5038736;28;20506;-57
2021/01/04 04:33:44;;;;;;;31.13;19.97;;;1.50;99.90;;;;;;5039552;28;20450;-57
2021/01/04 04:36:15;;;;;;;34.63;20.63;;;1.40;99.90;;;;;;5040080;28;20199;-56
2021/01/04 04:38:41;;;;;;;30.27;18.90;;;1.50;99.90;;;;;;5045101;28;20489;-60
2021/01/04 04:41:07;;;;;;;33.23;19.90;;;1.60;99.90;;;;;;5029351;28;20415;-56
2021/01/04 04:43:44;;;;;;;30.17;18.40;;;1.90;99.90;;;;;;5044495;28;20172;-53
2021/01/04 04:46:24;;;;;;;34.00;19.30;;;2.00;99.90;;;;;;5044904;28;20763;-53
2021/01/04 04:48:56;;;;;;;29.23;18.50;;;2.20;99.90;;;;;;5041160;28;20509;-60
2021/01/04 04:51:26;;;;;;;29.37;18.97;;;2.30;99.90;;;;;;5041315;28;20411;-54
2021/01/04 04:54:06;;;;;;;28.43;17.73;;;2.40;99.90;;;;;;5039145;28;20465;-60
2021/01/04 04:57:05;;;;;;;31.67;18.87;;;2.50;99.90;;;;;;5039232;28;20457;-57
2021/01/04 04:59:50;;;;;;;25.93;16.27;;;2.60;99.90;;;;;;5040667;28;20929;-52
2021/01/04 05:02:39;;;;;;;28.17;17.17;;;2.60;99.90;;;;;;5043229;28;20405;-57
2021/01/04 05:05:08;;;;;;;29.03;17.73;;;2.60;99.90;;;;;;5039177;28;20460;-54
2021/01/04 05:07:44;;;;;;;30.10;18.87;;;2.60;99.90;;;;;;5023904;28;20446;-60
2021/01/04 05:10:30;;;;;;;26.67;17.20;;;2.70;99.90;;;;;;5039576;28;20402;-56
2021/01/04 05:13:28;;;;;;;25.67;15.70;;;2.80;99.90;;;;;;5040623;28;20407;-59
2021/01/04 05:16:04;;;;;;;26.77;16.50;;;2.70;99.90;;;;;;4962098;29;20426;-56
2021/01/04 05:19:04;;;;;;;25.90;16.83;;;2.60;99.90;;;;;;4961622;29;20465;-53
2021/01/04 05:22:01;;;;;;;24.03;15.97;;;2.60;99.90;;;;;;4958071;29;20433;-57
2021/01/04 05:24:52;;;;;;;27.67;17.13;;;2.70;99.90;;;;;;4956965;29;20464;-58
2021/01/04 05:27:31;;;;;;;26.23;16.63;;;2.70;99.90;;;;;;4959421;28;20425;-58
2021/01/04 05:30:18;;;;;;;26.57;16.87;;;2.60;99.90;;;;;;4955400;29;20446;-58
2021/01/04 05:33:13;;;;;;;27.53;16.97;;;2.60;99.90;;;;;;4955659;29;20422;-51
2021/01/04 05:35:40;;;;;;;26.30;16.43;;;2.60;99.90;;;;;;4902189;29;20437;-56
2021/01/04 05:38:46;;;;;;;25.23;16.03;;;3.50;99.90;;;;;;4899689;29;20459;-58
2021/01/04 05:41:38;;;;;;;26.20;16.37;;;2.70;99.90;;;;;;4903701;29;20507;-54
2021/01/04 05:44:41;;;;;;;26.10;16.90;;;2.70;99.90;;;;;;4901892;29;20409;-60
2021/01/04 05:47:20;;;;;;;25.73;15.40;;;2.80;99.90;;;;;;4904594;29;20469;-54
2021/01/04 05:49:54;;;;;;;27.93;16.80;;;2.90;99.90;;;;;;4898798;29;20437;-52
2021/01/04 05:52:20;;;;;;;26.13;16.63;;;2.90;99.90;;;;;;4932331;29;20504;-58
2021/01/04 05:54:46;;;;;;;24.27;15.93;;;2.90;99.90;;;;;;4962256;29;20438;-56
2021/01/04 05:57:14;;;;;;;26.30;15.93;;;2.90;99.90;;;;;;4956619;29;20247;-51
2021/01/04 05:59:52;;;;;;;26.70;16.40;;;3.00;99.90;;;;;;4962051;29;20465;-58
2021/01/04 06:02:35;;;;;;;24.17;15.57;;;3.00;99.90;;;;;;4961579;29;20453;-60
2021/01/04 06:05:12;;;;;;;26.53;17.13;;;3.00;99.90;;;;;;4959753;29;20426;-55
2021/01/04 06:07:40;;;;;;;25.40;16.97;;;3.00;99.90;;;;;;4957816;29;20418;-57
2021/01/04 06:10:08;;;;;;;25.97;16.00;;;3.00;99.90;;;;;;4956243;29;20509;-54
2021/01/04 06:12:38;;;;;;;24.03;16.37;;;3.10;99.90;;;;;;5019944;28;20414;-56
2021/01/04 06:15:06;;;;;;;26.07;16.73;;;3.10;99.90;;;;;;5039055;28;20403;-58
2021/01/04 06:17:43;;;;;;;26.90;17.33;;;3.10;99.90;;;;;;5041512;28;20508;-59
2021/01/04 06:20:48;;;;;;;26.43;16.97;;;3.10;99.90;;;;;;5022217;28;20429;-54
2021/01/04 06:23:35;;;;;;;24.70;16.07;;;3.10;99.90;;;;;;4995587;28;20421;-57
2021/01/04 06:26:10;;;;;;;27.57;17.73;;;2.70;99.90;;;;;;5038207;28;20468;-55
2021/01/04 06:29:06;;;;;;;22.77;15.57;;;3.10;99.90;;;;;;5024059;28;20526;-58
2021/01/04 06:31:38;;;;;;;26.77;16.60;;;3.10;99.90;;;;;;5034915;28;20899;-52
2021/01/04 06:34:26;;;;;;;23.17;16.00;;;3.10;99.90;;;;;;5041723;28;20403;-59
2021/01/04 06:36:56;;;;;;;22.97;16.07;;;3.10;99.90;;;;;;5036882;28;20512;-52
2021/01/04 06:39:31;;;;;;;22.87;15.97;;;3.10;99.90;;;;;;5041843;28;20438;-57
2021/01/04 06:42:18;;;;;;;25.13;16.77;;;3.10;99.90;;;;;;5023842;28;20441;-54
2021/01/04 06:45:15;;;;;;;25.20;16.03;;;3.10;99.90;;;;;;5039764;28;20462;-50
2021/01/04 06:48:06;;;;;;;24.83;16.67;;;3.10;99.90;;;;;;5035848;28;20824;-57
2021/01/04 06:51:01;;;;;;;24.70;15.90;;;3.10;99.90;;;;;;5037836;28;20803;-59
2021/01/04 06:53:41;;;;;;;23.33;15.63;;;3.10;99.90;;;;;;5040488;28;20425;-58
2021/01/04 06:56:42;;;;;;;24.63;16.20;;;3.00;99.90;;;;;;5025242;28;20975;-54
2021/01/04 06:59:36;;;;;;;25.83;16.60;;;3.00;99.90;;;;;;5037359;28;20837;-57
2021/01/04 07:02:19;;;;;;;27.67;18.07;;;3.10;99.90;;;;;;5040959;28;20415;-53
2021/01/04 07:05:22;;;;;;;25.17;17.40;;;3.10;99.90;;;;;;5020550;28;20941;-59
2021/01/04 07:08:16;;;;;;;25.13;16.60;;;3.10;99.90;;;;;;5026909;28;20504;-55
2021/01/04 07:11:19;;;;;;;23.57;15.80;;;2.90;99.90;;;;;;5040784;28;20496;-57
2021/01/04 07:14:02;;;;;;;24.83;15.43;;;2.70;99.90;;;;;;5036239;28;20758;-53
2021/01/04 07:16:44;;;;;;;22.97;15.73;;;2.60;99.90;;;;;;5030316;28;20454;-56
2021/01/04 07:19:18;;;;;;;25.20;15.67;;;2.40;99.90;;;;;;5044884;28;20825;-57
2021/01/04 07:21:52;;;;;;;31.13;18.23;;;2.40;99.90;;;;;;5038445;28;20408;-58
2021/01/04 07:24:29;;;;;;;26.27;16.70;;;2.40;99.90;;;;;;5026628;28;20940;-57
2021/01/04 07:27:23;;;;;;;27.40;18.07;;;2.40;99.90;;;;;;5025570;28;20506;-57
2021/01/04 07:30:26;;;;;;;29.13;18.43;;;2.30;99.90;;;;;;5031459;28;20509;-58
2021/01/04 07:33:15;;;;;;;28.97;17.53;;;2.30;99.90;;;;;;5040227;28;20495;-55
2021/01/04 07:35:52;;;;;;;28.47;17.33;;;2.30;99.90;;;;;;5038043;28;20805;-52
2021/01/04 07:38:26;;;;;;;26.27;16.57;;;2.20;99.90;;;;;;5044093;28;20437;-51
2021/01/04 07:41:30;;;;;;;28.10;16.83;;;2.20;99.90;;;;;;5032456;28;20411;-53
2021/01/04 07:44:16;;;;;;;33.37;19.63;;;2.30;99.90;;;;;;5038017;28;20415;-60
2021/01/04 07:46:44;;;;;;;28.63;17.13;;;2.20;99.90;;;;;;5045456;28;20414;-58
2021/01/04 07:49:28;;;;;;;27.70;17.57;;;2.20;99.90;;;;;;5041034;28;20453;-54
2021/01/04 07:52:12;;;;;;;25.30;15.67;;;3.00;99.90;;;;;;5037224;28;20422;-55
2021/01/04 07:55:02;;;;;;;27.70;17.17;;;2.30;99.90;;;;;;5024661;28;20469;-59
2021/01/04 07:57:46;;;;;;;29.30;17.87;;;2.40;99.90;;;;;;5004559;28;20458;-54
2021/01/04 08:00:23;;;;;;;25.90;16.80;;;2.50;99.90;;;;;;5041296;28;20476;-53
2021/01/04 08:02:55;;;;;;;26.30;16.27;;;2.50;99.90;;;;;;5029117;28;20750;-50
2021/01/04 08:05:54;;;;;;;28.13;17.10;;;2.60;99.90;;;;;;5033379;28;20454;-54
2021/01/04 08:08:27;;;;;;;28.27;18.30;;;2.60;99.90;;;;;;5044243;28;20448;-56
2021/01/04 08:11:11;;;;;;;26.47;17.07;;;2.60;99.90;;;;;;5042228;28;20414;-52
2021/01/04 08:14:07;;;;;;;26.30;17.03;;;2.70;99.90;;;;;;5035925;28;20422;-53
2021/01/04 08:16:58;;;;;;;27.30;17.57;;;2.60;99.90;;;;;;5028244;28;20478;-58
2021/01/04 08:19:26;;;;;;;27.17;16.80;;;2.70;99.90;;;;;;5023651;28;20447;-58
2021/01/04 08:22:09;;;;;;;24.57;16.20;;;2.80;99.90;;;;;;5003961;28;21029;-59
2021/01/04 08:24:45;;;;;;;25.57;16.07;;;2.90;99.90;;;;;;5016359;28;20419;-58
2021/01/04 08:27:55;;;;;;;26.20;17.00;;;3.00;99.90;;;;;;5002012;28;20438;-55
2021/01/04 08:30:28;;;;;;;24.67;15.80;;;3.00;99.90;;;;;;4990996;28;20454;-60
2021/01/04 08:33:23;;;;;;;26.67;17.17;;;2.90;99.90;;;;;;5013978;28;20438;-60
2021/01/04 08:35:49;;;;;;;27.53;16.63;;;2.80;99.90;;;;;;5023285;28;20414;-54
2021/01/04 08:38:26;;;;;;;26.23;16.90;;;2.80;99.90;;;;;;5038060;28;20510;-58
2021/01/04 08:41:01;;;;;;;25.97;16.63;;;2.80;99.90;;;;;;5022370;28;20183;-51
2021/01/04 08:43:39;;;;;;;27.07;16.77;;;2.90;99.90;;;;;;5038294;28;20453;-57
2021/01/04 08:46:23;;;;;;;26.37;17.20;;;3.00;99.90;;;;;;5036145;28;20419;-57
2021/01/04 08:48:50;;;;;;;24.43;16.50;;;3.00;99.90;;;;;;5039940;28;20450;-57
2021/01/04 08:51:24;;;;;;;28.77;17.27;;;2.90;99.90;;;;;;5035276;28;20403;-53
2021/01/04 08:54:00;;;;;;;28.80;16.73;;;2.90;99.90;;;;;;5043986;28;20476;-54
2021/01/04 08:56:36;;;;;;;26.90;17.23;;;2.80;99.90;;;;;;5046064;28;20453;-54
2021/01/04 08:59:06;;;;;;;27.67;16.83;;;2.70;99.90;;;;;;5018745;28;20466;-53
2021/01/04 09:01:34;;;;;;;27.60;18.13;;;2.50;99.90;;;;;;5043583;28;20478;-57
2021/01/04 09:04:10;;;;;;;27.47;17.77;;;2.50;99.90;;;;;;5037107;28;20435;-60
2021/01/04 09:06:41;;;;;;;29.77;18.23;;;2.40;99.90;;;;;;5014845;28;20415;-56
2021/01/04 09:09:15;;;;;;;27.50;16.83;;;2.40;99.90;;;;;;5036125;28;20454;-59
2021/01/04 09:11:55;;;;;;;29.10;18.70;;;2.50;99.90;;;;;;5027276;28;20456;-57
2021/01/04 09:14:30;;;;;;;28.23;16.77;;;2.50;99.90;;;;;;5036476;28;20410;-55
2021/01/04 09:16:56;;;;;;;28.03;17.30;;;2.60;99.90;;;;;;5043503;28;20480;-60
2021/01/04 09:19:25;;;;;;;27.27;16.80;;;2.60;99.90;;;;;;5014613;28;20454;-53
2021/01/04 09:21:51;;;;;;;27.13;17.13;;;2.60;99.90;;;;;;5039426;28;20175;-59
2021/01/04 09:24:32;;;;;;;27.63;17.93;;;2.30;99.90;;;;;;5023316;28;20540;-59
2021/01/04 09:27:04;;;;;;;32.60;19.27;;;2.80;99.90;;;;;;5035187;28;20909;-53
2021/01/04 09:29:35;;;;;;;28.10;18.47;;;2.90;99.90;;;;;;5044630;28;20523;-59
2021/01/04 09:32:10;;;;;;;26.53;17.07;;;3.00;99.90;;;;;;5018475;28;20190;-57
2021/01/04 09:34:36;;;;;;;27.17;17.47;;;3.10;99.90;;;;;;5038450;28;20437;-55
2021/01/04 09:37:06;;;;;;;29.93;19.03;;;3.10;99.90;;;;;;5042415;28;20457;-60
2021/01/04 09:39:34;;;;;;;26.03;17.43;;;3.00;99.90;;;;;;5037005;28;20201;-60
2021/01/04 09:42:03;;;;;;;27.37;17.13;;;2.90;99.90;;;;;;5037033;28;20407;-58
2021/01/04 09:44:29;;;;;;;26.97;17.13;;;3.00;99.90;;;;;;5039590;28;20462;-51
2021/01/04 09:47:01;;;;;;;25.10;15.97;;;3.00;99.90;;;;;;5036112;28;20644;-57
2021/01/04 09:49:48;;;;;;;25.17;16.90;;;3.10;99.90;;;;;;5035020;28;20226;-54
2021/01/04 09:52:24;;;;;;;22.53;14.77;;;3.30;99.90;;;;;;5039125;28;20266;-58
2021/01/04 09:54:53;;;;;;;24.07;15.63;;;3.50;99.90;;;;;;5038988;28;20417;-57
2021/01/04 09:57:20;;;;;;;22.13;15.40;;;3.70;99.90;;;;;;5039196;28;20529;-60
2021/01/04 09:59:47;;;;;;;23.83;15.60;;;3.90;99.90;;;;;;5039762;28;20200;-53
2021/01/04 10:02:22;;;;;;;22.37;15.10;;;4.00;99.90;;;;;;5040204;28;20232;-52
2021/01/04 10:04:47;;;;;;;23.87;15.37;;;4.10;99.90;;;;;;5023130;28;20192;-60
2021/01/04 10:07:27;;;;;;;23.67;15.97;;;4.10;99.90;;;;;;5016818;28;20177;-58
2021/01/04 10:09:54;;;;;;;25.93;16.17;;;4.00;99.90;;;;;;5022385;28;20552;-60
2021/01/04 10:12:23;;;;;;;26.00;17.33;;;4.00;99.90;;;;;;5019287;28;20180;-54
2021/01/04 10:14:57;;;;;;;26.20;17.53;;;3.80;99.90;;;;;;5015813;28;20173;-60
2021/01/04 10:17:34;;;;;;;26.53;17.57;;;3.80;99.90;;;;;;5017452;28;20223;-58
2021/01/04 10:20:04;;;;;;;26.27;17.07;;;3.70;99.90;;;;;;5018107;28;20194;-57
2021/01/04 10:22:34;;;;;;;24.53;17.30;;;3.50;99.90;;;;;;5020654;28;20176;-60
2021/01/04 10:25:26;;;;;;;22.80;15.47;;;3.50;99.90;;;;;;5023421;28;20415;-58
2021/01/04 10:27:54;;;;;;;26.03;16.70;;;3.50;99.90;;;;;;5024407;28;20231;-60
2021/01/04 10:30:23;;;;;;;25.30;17.60;;;3.50;99.90;;;;;;5035575;28;20303;-54
2021/01/04 10:32:48;;;;;;;28.10;17.27;;;3.50;99.90;;;;;;5039319;28;20207;-54
2021/01/04 10:35:21;;;;;;;25.50;16.97;;;3.40;99.90;;;;;;5036751;28;20202;-53
2021/01/04 10:38:00;;;;;;;24.67;15.47;;;3.30;99.90;;;;;;5038778;28;20714;-56
2021/01/04 10:40:26;;;;;;;25.87;16.40;;;3.50;99.90;;;;;;5040478;28;20171;-55
2021/01/04 10:43:05;;;;;;;25.10;16.17;;;3.50;99.90;;;;;;5038830;28;20219;-60
2021/01/04 10:45:40;;;;;;;24.23;16.20;;;3.40;99.90;;;;;;5038597;28;20430;-57
2021/01/04 10:48:14;;;;;;;25.23;16.40;;;3.40;99.90;;;;;;5036723;28;20543;-54
2021/01/04 10:50:46;;;;;;;27.27;17.33;;;3.40;99.90;;;;;;5037306;28;20226;-57
2021/01/04 10:53:32;;;;;;;28.33;18.67;;;3.40;99.90;;;;;;5036867;28;20196;-53
2021/01/04 10:56:09;;;;;;;27.73;17.27;;;3.30;99.90;;;;;;5038010;28;20195;-56
2021/01/04 10:58:50;;;;;;;25.23;16.43;;;3.20;99.90;;;;;;5034694;28;20438;-58
2021/01/04 11:01:22;;;;;;;24.37;16.13;;;3.20;99.90;;;;;;5024444;28;20453;-56
2021/01/04 11:03:56;;;;;;;24.77;16.00;;;3.20;99.90;;;;;;5035925;28;20434;-54
2021/01/04 11:06:48;;;;;;;22.93;15.87;;;3.40;99.90;;;;;;5035356;28;20659;-52
2021/01/04 11:09:16;;;;;;;25.00;15.40;;;3.40;99.90;;;;;;4958932;29;20218;-54
2021/01/04 11:11:46;;;;;;;24.83;16.87;;;3.50;99.90;;;;;;4955073;29;20199;-55
2021/01/04 11:14:23;;;;;;;24.57;15.90;;;3.40;99.90;;;;;;4957640;29;20414;-54
2021/01/04 11:16:51;;;;;;;27.17;17.50;;;3.40;99.90;;;;;;4958146;29;20329;-58
2021/01/04 11:19:32;;;;;;;28.57;17.87;;;3.40;99.90;;;;;;4956252;29;20210;-58
2021/01/04 11:22:16;;;;;;;26.60;17.33;;;3.50;99.90;;;;;;4926191;29;20251;-60
2021/01/04 11:24:42;;;;;;;25.43;17.70;;;3.40;99.90;;;;;;4928661;29;20188;-57
2021/01/04 11:27:08;;;;;;;25.77;16.57;;;3.30;99.90;;;;;;4919863;29;20199;-58
2021/01/04 11:29:34;;;;;;;26.80;17.03;;;3.20;99.90;;;;;;4947057;29;20199;-60
2021/01/04 11:31:59;;;;;;;23.63;15.93;;;3.10;99.90;;;;;;4942666;29;20195;-58
2021/01/04 11:34:25;;;;;;;25.97;17.27;;;3.10;99.90;;;;;;4946220;29;20250;-55
2021/01/04 11:36:53;;;;;;;27.87;17.83;;;3.10;99.90;;;;;;4946930;29;20230;-58
2021/01/04 11:39:20;;;;;;;30.37;18.80;;;3.00;99.90;;;;;;4946213;29;20227;-60
2021/01/04 11:41:46;;;;;;;26.47;17.00;;;3.00;99.90;;;;;;4945203;29;20780;-53
2021/01/04 11:44:11;;;;;;;25.37;17.27;;;3.10;99.90;;;;;;4944708;29;20415;-57
2021/01/04 11:46:37;;;;;;;28.07;16.70;;;3.10;99.90;;;;;;4979329;28;20200;-58
2021/01/04 11:49:04;;;;;;;28.70;18.50;;;3.30;99.90;;;;;;4997434;28;20201;-58
2021/01/04 11:51:30;;;;;;;28.50;17.77;;;3.30;99.90;;;;;;4999411;28;20192;-58
2021/01/04 11:53:56;;;;;;;27.10;17.10;;;3.50;99.90;;;;;;4998969;28;20192;-58
2021/01/04 11:56:24;;;;;;;26.27;16.03;;;3.50;99.90;;;;;;4993987;28;20200;-58
2021/01/04 11:58:50;;;;;;;25.73;16.53;;;3.60;99.90;;;;;;5016042;28;20258;-54
2021/01/04 12:01:17;;;;;;;24.77;15.87;;;3.50;99.90;;;;;;5040325;28;20632;-53
2021/01/04 12:03:43;;;;;;;25.43;16.73;;;3.50;99.90;;;;;;5037204;28;20200;-59
2021/01/04 12:06:10;;;;;;;28.37;17.30;;;3.50;99.90;;;;;;5037725;28;20179;-56
2021/01/04 12:08:36;;;;;;;28.80;17.80;;;3.50;99.90;;;;;;5038691;28;20659;-59
2021/01/04 12:11:01;;;;;;;25.07;16.37;;;3.30;99.90;;;;;;5038421;28;20512;-58
2021/01/04 12:13:27;;;;;;;24.77;16.07;;;3.40;99.90;;;;;;5045697;28;20190;-55
2021/01/04 12:15:53;;;;;;;25.03;16.60;;;3.50;99.90;;;;;;5042410;28;20191;-60
2021/01/04 12:18:19;;;;;;;28.47;17.03;;;3.50;99.90;;;;;;5043322;28;20214;-57
2021/01/04 12:20:46;;;;;;;26.10;17.23;;;3.50;99.90;;;;;;5021637;28;20643;-60
2021/01/04 12:23:11;;;;;;;26.57;17.00;;;3.50;99.90;;;;;;5022589;28;20195;-61
2021/01/04 12:25:37;;;;;;;28.70;18.03;;;3.40;99.90;;;;;;5037625;28;20187;-59
2021/01/04 12:28:03;;;;;;;27.40;17.20;;;3.40;99.90;;;;;;5042595;28;20217;-60
2021/01/04 12:30:28;;;;;;;26.07;16.37;;;2.90;99.90;;;;;;5039060;28;20180;-59
2021/01/04 12:32:54;;;;;;;26.07;17.33;;;3.40;99.90;;;;;;5042318;28;20239;-58
2021/01/04 12:35:21;;;;;;;24.60;15.57;;;3.30;99.90;;;;;;5042852;28;20175;-58
2021/01/04 12:37:47;;;;;;;25.67;16.73;;;3.40;99.90;;;;;;5037889;28;20203;-59
2021/01/04 12:40:16;;;;;;;25.70;16.50;;;3.20;99.90;;;;;;5042099;28;20168;-54
2021/01/04 12:42:41;;;;;;;27.07;16.90;;;3.40;99.90;;;;;;5042933;28;20183;-56
2021/01/04 12:45:08;;;;;;;25.40;16.20;;;3.30;99.90;;;;;;5042485;28;20171;-61
2021/01/04 12:47:34;;;;;;;25.63;16.20;;;3.30;99.90;;;;;;5045370;28;20606;-60
2021/01/04 12:49:59;;;;;;;27.30;17.27;;;3.40;99.90;;;;;;5040779;28;20882;-60
2021/01/04 12:52:25;;;;;;;28.53;17.80;;;3.30;99.90;;;;;;5035079;28;20278;-53
2021/01/04 12:54:51;;;;;;;25.87;16.73;;;3.30;99.90;;;;;;5040529;28;20549;-57
2021/01/04 12:57:17;;;;;;;26.27;17.10;;;3.10;99.90;;;;;;5026422;28;20243;-55
2021/01/04 12:59:43;;;;;;;26.47;16.20;;;3.10;99.90;;;;;;5039135;28;20222;-58
2021/01/04 13:02:09;;;;;;;27.37;17.07;;;3.00;99.90;;;;;;5042361;28;20168;-55
2021/01/04 13:04:42;;;;;;;24.53;15.77;;;3.00;99.90;;;;;;5041801;28;20187;-60
2021/01/04 13:07:09;;;;;;;22.47;15.00;;;3.00;99.90;;;;;;5035119;28;20182;-58
2021/01/04 13:09:35;;;;;;;25.70;16.23;;;3.10;99.90;;;;;;5041546;28;20282;-54
2021/01/04 13:12:01;;;;;;;24.80;15.23;;;3.10;99.90;;;;;;5043102;28;20210;-59
2021/01/04 13:14:27;;;;;;;22.67;15.73;;;3.20;99.90;;;;;;5036079;28;20414;-53
2021/01/04 13:16:52;;;;;;;23.90;15.87;;;3.40;99.90;;;;;;5040342;28;20206;-59
2021/01/04 13:19:18;;;;;;;23.37;16.03;;;3.60;99.90;;;;;;5040753;28;20254;-57
2021/01/04 13:21:44;;;;;;;22.00;15.67;;;3.80;99.90;;;;;;5033966;28;20191;-54
2021/01/04 13:24:13;;;;;;;22.80;15.37;;;3.90;99.90;;;;;;5039048;28;20666;-59